sensor_id;sensor_type;location;lat;lon;timestamp;temperature;humidity
1524;DHT22;755;53.658;10.118;2022-09-09T00:05:41;14.50;99.90
1524;DHT22;755;53.658;10.118;2022-09-09T00:15:53;14.60;99.90
1524;DHT22;755;53.658;10.118;2022-09-09T00:26:08;14.60;99.90
1524;DHT22;755;53.658;10.118;2022-09-09T00:36:13;14.70;99.90
1524;DHT22;755;53.658;10.118;2022-09-09T00:46:40;14.80;99.90
1524;DHT22;755;53.658;10.118;2022-09-09T00:56:49;14.80;99.90
1524;DHT22;755;53.658;10.118;2022-09-09T01:07:02;14.80;99.90
1524;DHT22;755;53.658;10.118;2022-09-09T01:17:11;14.80;99.90
1524;DHT22;755;53.658;10.118;2022-09-09T01:27:18;14.80;99.90
1524;DHT22;755;53.658;10.118;2022-09-09T01:37:21;14.80;99.90
1524;DHT22;755;53.658;10.118;2022-09-09T01:47:24;14.80;99.90
1524;DHT22;755;53.658;10.118;2022-09-09T01:57:29;14.60;99.90
1524;DHT22;755;53.658;10.118;2022-09-09T02:07:39;14.50;99.90
1524;DHT22;755;53.658;10.118;2022-09-09T02:17:41;14.50;99.90
1524;DHT22;755;53.658;10.118;2022-09-09T02:27:47;14.50;99.90
1524;DHT22;755;53.658;10.118;2022-09-09T02:37:51;14.50;99.90
1524;DHT22;755;53.658;10.118;2022-09-09T02:48:01;14.40;99.90
1524;DHT22;755;53.658;10.118;2022-09-09T02:58:07;14.40;99.90
1524;DHT22;755;53.658;10.118;2022-09-09T03:08:13;14.30;99.90
1524;DHT22;755;53.658;10.118;2022-09-09T03:18:15;14.30;99.90
1524;DHT22;755;53.658;10.118;2022-09-09T03:28:18;14.30;99.90
1524;DHT22;755;53.658;10.118;2022-09-09T03:38:21;14.30;99.90
1524;DHT22;755;53.658;10.118;2022-09-09T03:48:25;14.20;99.90
1524;DHT22;755;53.658;10.118;2022-09-09T03:58:28;14.30;99.90
1524;DHT22;755;53.658;10.118;2022-09-09T04:08:32;14.30;99.90
1524;DHT22;755;53.658;10.118;2022-09-09T04:18:34;14.30;99.90
1524;DHT22;755;53.658;10.118;2022-09-09T04:28:37;14.20;99.90
1524;DHT22;755;53.658;10.118;2022-09-09T04:38:39;14.10;99.90
1524;DHT22;755;53.658;10.118;2022-09-09T04:48:43;14.00;99.90
1524;DHT22;755;53.658;10.118;2022-09-09T04:58:45;14.00;99.90
1524;DHT22;755;53.658;10.118;2022-09-09T05:08:48;14.00;99.90
1524;DHT22;755;53.658;10.118;2022-09-09T05:18:51;14.10;99.90
1524;DHT22;755;53.658;10.118;2022-09-09T05:28:54;14.10;99.90
1524;DHT22;755;53.658;10.118;2022-09-09T05:38:57;14.10;99.90
1524;DHT22;755;53.658;10.118;2022-09-09T05:49:02;14.10;99.90
1524;DHT22;755;53.658;10.118;2022-09-09T05:59:07;14.20;99.90
1524;DHT22;755;53.658;10.118;2022-09-09T06:09:10;14.20;99.90
1524;DHT22;755;53.658;10.118;2022-09-09T06:19:12;14.40;99.90
1524;DHT22;755;53.658;10.118;2022-09-09T06:29:16;14.50;99.90
1524;DHT22;755;53.658;10.118;2022-09-09T06:39:18;14.70;99.90
1524;DHT22;755;53.658;10.118;2022-09-09T06:49:21;14.70;99.90
1524;DHT22;755;53.658;10.118;2022-09-09T06:59:23;14.80;99.90
1524;DHT22;755;53.658;10.118;2022-09-09T07:09:28;14.80;99.90
1524;DHT22;755;53.658;10.118;2022-09-09T07:19:32;14.80;99.90
1524;DHT22;755;53.658;10.118;2022-09-09T07:29:36;14.80;99.90
1524;DHT22;755;53.658;10.118;2022-09-09T07:39:38;15.20;99.90
1524;DHT22;755;53.658;10.118;2022-09-09T07:49:41;15.50;99.90
1524;DHT22;755;53.658;10.118;2022-09-09T07:59:43;15.40;99.90
1524;DHT22;755;53.658;10.118;2022-09-09T08:09:47;15.70;99.90
1524;DHT22;755;53.658;10.118;2022-09-09T08:19:49;16.10;99.90
1524;DHT22;755;53.658;10.118;2022-09-09T08:29:53;16.40;99.90
1524;DHT22;755;53.658;10.118;2022-09-09T08:39:56;16.60;99.90
1524;DHT22;755;53.658;10.118;2022-09-09T08:50:06;17.30;99.90
1524;DHT22;755;53.658;10.118;2022-09-09T09:00:13;17.60;99.90
1524;DHT22;755;53.658;10.118;2022-09-09T09:10:24;18.40;99.90
1524;DHT22;755;53.658;10.118;2022-09-09T09:20:32;18.00;99.90
1524;DHT22;755;53.658;10.118;2022-09-09T09:30:40;17.90;99.90
1524;DHT22;755;53.658;10.118;2022-09-09T09:40:51;17.70;99.90
1524;DHT22;755;53.658;10.118;2022-09-09T09:50:57;18.60;99.90
1524;DHT22;755;53.658;10.118;2022-09-09T10:01:00;18.60;99.90
1524;DHT22;755;53.658;10.118;2022-09-09T10:11:12;18.40;99.90
1524;DHT22;755;53.658;10.118;2022-09-09T10:21:51;18.90;99.90
1524;DHT22;755;53.658;10.118;2022-09-09T10:32:07;19.50;99.90
1524;DHT22;755;53.658;10.118;2022-09-09T10:42:16;18.60;99.90
1524;DHT22;755;53.658;10.118;2022-09-09T10:52:25;19.00;99.90
1524;DHT22;755;53.658;10.118;2022-09-09T11:02:29;19.00;99.90
1524;DHT22;755;53.658;10.118;2022-09-09T11:12:34;18.80;99.90
1524;DHT22;755;53.658;10.118;2022-09-09T11:22:44;19.10;99.90
1524;DHT22;755;53.658;10.118;2022-09-09T11:43:31;18.80;99.90
1524;DHT22;755;53.658;10.118;2022-09-09T11:53:46;19.20;99.90
1524;DHT22;755;53.658;10.118;2022-09-09T12:03:51;19.60;99.90
1524;DHT22;755;53.658;10.118;2022-09-09T12:13:59;19.80;99.90
1524;DHT22;755;53.658;10.118;2022-09-09T12:24:04;20.10;99.90
1524;DHT22;755;53.658;10.118;2022-09-09T12:34:15;20.50;91.90
1524;DHT22;755;53.658;10.118;2022-09-09T12:44:18;20.20;1.00
1524;DHT22;755;53.658;10.118;2022-09-09T12:54:21;19.70;15.60
1524;DHT22;755;53.658;10.118;2022-09-09T13:04:23;19.60;1.00
1524;DHT22;755;53.658;10.118;2022-09-09T13:14:29;19.80;99.90
1524;DHT22;755;53.658;10.118;2022-09-09T13:24:35;19.70;1.00
1524;DHT22;755;53.658;10.118;2022-09-09T13:34:38;19.30;99.90
1524;DHT22;755;53.658;10.118;2022-09-09T13:44:41;19.20;99.90
1524;DHT22;755;53.658;10.118;2022-09-09T13:54:47;18.90;99.90
1524;DHT22;755;53.658;10.118;2022-09-09T14:04:49;18.60;99.90
1524;DHT22;755;53.658;10.118;2022-09-09T14:14:56;18.30;99.90
1524;DHT22;755;53.658;10.118;2022-09-09T14:25:00;17.80;99.90
1524;DHT22;755;53.658;10.118;2022-09-09T14:35:04;17.70;99.90
1524;DHT22;755;53.658;10.118;2022-09-09T14:45:07;17.40;99.90
1524;DHT22;755;53.658;10.118;2022-09-09T14:55:10;17.20;99.90
1524;DHT22;755;53.658;10.118;2022-09-09T15:05:12;17.10;99.90
1524;DHT22;755;53.658;10.118;2022-09-09T15:15:18;17.00;99.90
1524;DHT22;755;53.658;10.118;2022-09-09T15:25:20;16.90;99.90
1524;DHT22;755;53.658;10.118;2022-09-09T15:35:24;16.90;99.90
1524;DHT22;755;53.658;10.118;2022-09-09T15:45:26;17.00;99.90
1524;DHT22;755;53.658;10.118;2022-09-09T15:55:29;16.60;99.90
1524;DHT22;755;53.658;10.118;2022-09-09T16:05:33;16.70;99.90
1524;DHT22;755;53.658;10.118;2022-09-09T16:15:36;16.60;99.90
1524;DHT22;755;53.658;10.118;2022-09-09T16:25:38;16.80;99.90
1524;DHT22;755;53.658;10.118;2022-09-09T16:35:42;17.10;99.90
1524;DHT22;755;53.658;10.118;2022-09-09T16:45:45;17.30;99.90
1524;DHT22;755;53.658;10.118;2022-09-09T16:55:48;17.30;99.90
1524;DHT22;755;53.658;10.118;2022-09-09T17:05:51;17.10;99.90
1524;DHT22;755;53.658;10.118;2022-09-09T17:15:54;16.90;99.90
1524;DHT22;755;53.658;10.118;2022-09-09T17:25:56;16.60;99.90
1524;DHT22;755;53.658;10.118;2022-09-09T17:36:02;16.70;99.90
1524;DHT22;755;53.658;10.118;2022-09-09T17:46:09;16.90;99.90
1524;DHT22;755;53.658;10.118;2022-09-09T17:56:14;16.90;99.90
1524;DHT22;755;53.658;10.118;2022-09-09T18:06:18;16.80;99.90
1524;DHT22;755;53.658;10.118;2022-09-09T18:16:23;16.50;99.90
1524;DHT22;755;53.658;10.118;2022-09-09T18:26:25;16.30;99.90
1524;DHT22;755;53.658;10.118;2022-09-09T18:36:31;16.20;99.90
1524;DHT22;755;53.658;10.118;2022-09-09T18:46:35;16.00;99.90
1524;DHT22;755;53.658;10.118;2022-09-09T18:56:41;15.90;99.90
1524;DHT22;755;53.658;10.118;2022-09-09T19:06:45;15.70;99.90
1524;DHT22;755;53.658;10.118;2022-09-09T19:16:49;15.60;99.90
1524;DHT22;755;53.658;10.118;2022-09-09T19:26:53;15.50;99.90
1524;DHT22;755;53.658;10.118;2022-09-09T19:36:57;15.40;99.90
1524;DHT22;755;53.658;10.118;2022-09-09T19:47:00;15.40;99.90
1524;DHT22;755;53.658;10.118;2022-09-09T19:57:04;15.50;99.90
1524;DHT22;755;53.658;10.118;2022-09-09T20:07:06;15.40;99.90
1524;DHT22;755;53.658;10.118;2022-09-09T20:17:09;15.30;99.90
1524;DHT22;755;53.658;10.118;2022-09-09T20:27:11;15.10;99.90
1524;DHT22;755;53.658;10.118;2022-09-09T20:37:15;15.00;99.90
1524;DHT22;755;53.658;10.118;2022-09-09T20:47:18;15.00;99.90
1524;DHT22;755;53.658;10.118;2022-09-09T20:57:21;14.90;99.90
1524;DHT22;755;53.658;10.118;2022-09-09T21:07:24;14.80;99.90
1524;DHT22;755;53.658;10.118;2022-09-09T21:17:27;14.70;99.90
1524;DHT22;755;53.658;10.118;2022-09-09T21:27:29;14.70;99.90
1524;DHT22;755;53.658;10.118;2022-09-09T21:37:32;14.70;99.90
1524;DHT22;755;53.658;10.118;2022-09-09T21:47:35;14.70;99.90
1524;DHT22;755;53.658;10.118;2022-09-09T21:57:38;14.60;99.90
1524;DHT22;755;53.658;10.118;2022-09-09T22:07:40;14.50;99.90
1524;DHT22;755;53.658;10.118;2022-09-09T22:17:44;14.50;99.90
1524;DHT22;755;53.658;10.118;2022-09-09T22:27:46;14.60;99.90
1524;DHT22;755;53.658;10.118;2022-09-09T22:37:50;14.70;99.90
1524;DHT22;755;53.658;10.118;2022-09-09T22:47:53;14.70;99.90
1524;DHT22;755;53.658;10.118;2022-09-09T22:58:00;14.70;99.90
1524;DHT22;755;53.658;10.118;2022-09-09T23:08:02;14.60;99.90
1524;DHT22;755;53.658;10.118;2022-09-09T23:18:11;14.60;99.90
1524;DHT22;755;53.658;10.118;2022-09-09T23:28:14;14.60;99.90
1524;DHT22;755;53.658;10.118;2022-09-09T23:38:19;14.40;99.90
1524;DHT22;755;53.658;10.118;2022-09-09T23:48:21;14.20;99.90
1524;DHT22;755;53.658;10.118;2022-09-09T23:58:24;14.20;99.90
